sensor_id;sensor_type;location;lat;lon;timestamp;P1;durP1;ratioP1;P2;durP2;ratioP2
22713;SDS011;11524;50.846;4.326;2022-08-04T00:00:43;8.00;;;2.65;;
22713;SDS011;11524;50.846;4.326;2022-08-04T00:03:20;4.82;;;2.38;;
22713;SDS011;11524;50.846;4.326;2022-08-04T00:11:10;4.38;;;2.38;;
22713;SDS011;11524;50.846;4.326;2022-08-04T00:13:52;3.55;;;2.30;;
22713;SDS011;11524;50.846;4.326;2022-08-04T00:16:21;6.05;;;2.45;;
22713;SDS011;11524;50.846;4.326;2022-08-04T00:18:59;5.30;;;2.25;;
22713;SDS011;11524;50.846;4.326;2022-08-04T00:21:28;4.20;;;2.55;;
22713;SDS011;11524;50.846;4.326;2022-08-04T00:24:00;3.95;;;2.03;;
22713;SDS011;11524;50.846;4.326;2022-08-04T00:26:26;5.55;;;2.17;;
22713;SDS011;11524;50.846;4.326;2022-08-04T00:28:52;6.03;;;2.67;;
22713;SDS011;11524;50.846;4.326;2022-08-04T00:31:19;6.13;;;2.50;;
22713;SDS011;11524;50.846;4.326;2022-08-04T00:33:47;3.83;;;2.28;;
22713;SDS011;11524;50.846;4.326;2022-08-04T00:36:14;3.92;;;2.28;;
22713;SDS011;11524;50.846;4.326;2022-08-04T00:38:41;5.35;;;2.55;;
22713;SDS011;11524;50.846;4.326;2022-08-04T00:44:12;5.28;;;2.35;;
22713;SDS011;11524;50.846;4.326;2022-08-04T00:47:03;4.22;;;2.30;;
22713;SDS011;11524;50.846;4.326;2022-08-04T00:49:42;3.58;;;2.38;;
22713;SDS011;11524;50.846;4.326;2022-08-04T00:55:36;3.97;;;2.20;;
22713;SDS011;11524;50.846;4.326;2022-08-04T00:58:25;3.55;;;2.40;;
22713;SDS011;11524;50.846;4.326;2022-08-04T01:01:18;4.20;;;2.65;;
22713;SDS011;11524;50.846;4.326;2022-08-04T01:03:57;3.97;;;1.90;;
22713;SDS011;11524;50.846;4.326;2022-08-04T01:06:44;3.45;;;2.10;;
22713;SDS011;11524;50.846;4.326;2022-08-04T01:09:51;3.85;;;2.20;;
22713;SDS011;11524;50.846;4.326;2022-08-04T01:15:09;2.92;;;2.40;;
22713;SDS011;11524;50.846;4.326;2022-08-04T01:20:26;4.63;;;2.20;;
22713;SDS011;11524;50.846;4.326;2022-08-04T01:26:17;4.80;;;2.25;;
22713;SDS011;11524;50.846;4.326;2022-08-04T01:29:02;4.07;;;2.30;;
22713;SDS011;11524;50.846;4.326;2022-08-04T01:34:18;4.63;;;2.30;;
22713;SDS011;11524;50.846;4.326;2022-08-04T01:36:46;4.25;;;2.50;;
22713;SDS011;11524;50.846;4.326;2022-08-04T01:39:35;5.47;;;2.42;;
22713;SDS011;11524;50.846;4.326;2022-08-04T01:42:09;4.75;;;2.25;;
22713;SDS011;11524;50.846;4.326;2022-08-04T01:44:36;4.47;;;2.40;;
22713;SDS011;11524;50.846;4.326;2022-08-04T01:47:04;5.97;;;2.85;;
22713;SDS011;11524;50.846;4.326;2022-08-04T01:49:32;4.00;;;2.20;;
22713;SDS011;11524;50.846;4.326;2022-08-04T01:51:58;6.20;;;2.30;;
22713;SDS011;11524;50.846;4.326;2022-08-04T01:54:24;3.35;;;2.30;;
22713;SDS011;11524;50.846;4.326;2022-08-04T01:56:50;2.47;;;2.20;;
22713;SDS011;11524;50.846;4.326;2022-08-04T01:59:18;6.53;;;2.60;;
22713;SDS011;11524;50.846;4.326;2022-08-04T02:01:45;3.80;;;2.10;;
22713;SDS011;11524;50.846;4.326;2022-08-04T02:04:15;3.95;;;2.22;;
22713;SDS011;11524;50.846;4.326;2022-08-04T02:07:03;3.20;;;2.30;;
22713;SDS011;11524;50.846;4.326;2022-08-04T02:18:02;3.70;;;2.22;;
22713;SDS011;11524;50.846;4.326;2022-08-04T02:23:06;4.60;;;3.00;;
22713;SDS011;11524;50.846;4.326;2022-08-04T02:25:36;4.07;;;2.30;;
22713;SDS011;11524;50.846;4.326;2022-08-04T02:33:45;5.80;;;2.30;;
22713;SDS011;11524;50.846;4.326;2022-08-04T02:36:21;6.40;;;2.60;;
22713;SDS011;11524;50.846;4.326;2022-08-04T02:39:00;5.38;;;2.67;;
22713;SDS011;11524;50.846;4.326;2022-08-04T02:41:28;4.88;;;2.28;;
22713;SDS011;11524;50.846;4.326;2022-08-04T02:43:56;3.97;;;2.40;;
22713;SDS011;11524;50.846;4.326;2022-08-04T02:46:23;5.03;;;2.42;;
22713;SDS011;11524;50.846;4.326;2022-08-04T02:48:50;4.72;;;2.22;;
22713;SDS011;11524;50.846;4.326;2022-08-04T02:51:20;4.15;;;2.50;;
22713;SDS011;11524;50.846;4.326;2022-08-04T02:53:52;3.80;;;2.50;;
22713;SDS011;11524;50.846;4.326;2022-08-04T02:56:21;5.05;;;2.60;;
22713;SDS011;11524;50.846;4.326;2022-08-04T02:58:48;4.60;;;2.17;;
22713;SDS011;11524;50.846;4.326;2022-08-04T03:01:17;4.70;;;2.38;;
22713;SDS011;11524;50.846;4.326;2022-08-04T03:03:47;5.43;;;2.90;;
22713;SDS011;11524;50.846;4.326;2022-08-04T03:32:09;5.13;;;2.95;;
22713;SDS011;11524;50.846;4.326;2022-08-04T03:37:50;4.72;;;2.63;;
22713;SDS011;11524;50.846;4.326;2022-08-04T03:41:33;6.43;;;2.28;;
22713;SDS011;11524;50.846;4.326;2022-08-04T03:52:23;5.97;;;2.80;;
22713;SDS011;11524;50.846;4.326;2022-08-04T04:01:52;5.05;;;2.85;;
22713;SDS011;11524;50.846;4.326;2022-08-04T04:21:26;6.90;;;2.90;;
22713;SDS011;11524;50.846;4.326;2022-08-04T04:45:37;11.07;;;3.58;;
22713;SDS011;11524;50.846;4.326;2022-08-04T04:59:52;13.90;;;4.10;;
22713;SDS011;11524;50.846;4.326;2022-08-04T05:07:52;11.20;;;3.58;;
22713;SDS011;11524;50.846;4.326;2022-08-04T05:18:46;7.57;;;3.40;;
22713;SDS011;11524;50.846;4.326;2022-08-04T05:21:28;8.27;;;3.70;;
22713;SDS011;11524;50.846;4.326;2022-08-04T05:23:59;9.48;;;3.33;;
22713;SDS011;11524;50.846;4.326;2022-08-04T05:26:30;9.25;;;3.58;;
22713;SDS011;11524;50.846;4.326;2022-08-04T05:29:00;9.15;;;3.72;;
22713;SDS011;11524;50.846;4.326;2022-08-04T05:31:38;11.65;;;3.35;;
22713;SDS011;11524;50.846;4.326;2022-08-04T05:34:14;8.45;;;3.17;;
22713;SDS011;11524;50.846;4.326;2022-08-04T05:36:48;10.18;;;3.63;;
22713;SDS011;11524;50.846;4.326;2022-08-04T05:39:21;11.93;;;3.95;;
22713;SDS011;11524;50.846;4.326;2022-08-04T05:41:50;11.55;;;3.75;;
22713;SDS011;11524;50.846;4.326;2022-08-04T05:44:18;8.95;;;3.47;;
22713;SDS011;11524;50.846;4.326;2022-08-04T05:46:47;7.57;;;3.38;;
22713;SDS011;11524;50.846;4.326;2022-08-04T05:49:15;8.07;;;3.40;;
22713;SDS011;11524;50.846;4.326;2022-08-04T05:51:42;10.40;;;3.33;;
22713;SDS011;11524;50.846;4.326;2022-08-04T05:54:10;10.23;;;3.15;;
22713;SDS011;11524;50.846;4.326;2022-08-04T05:56:37;11.25;;;3.85;;
22713;SDS011;11524;50.846;4.326;2022-08-04T05:59:03;12.60;;;3.63;;
22713;SDS011;11524;50.846;4.326;2022-08-04T06:01:30;5.43;;;3.38;;
22713;SDS011;11524;50.846;4.326;2022-08-04T06:03:59;10.23;;;3.97;;
22713;SDS011;11524;50.846;4.326;2022-08-04T06:06:26;8.93;;;3.85;;
22713;SDS011;11524;50.846;4.326;2022-08-04T06:08:55;10.35;;;4.40;;
22713;SDS011;11524;50.846;4.326;2022-08-04T06:11:21;9.48;;;4.60;;
22713;SDS011;11524;50.846;4.326;2022-08-04T06:13:50;11.32;;;4.78;;
22713;SDS011;11524;50.846;4.326;2022-08-04T06:16:23;9.88;;;4.10;;
22713;SDS011;11524;50.846;4.326;2022-08-04T06:18:52;12.68;;;3.70;;
22713;SDS011;11524;50.846;4.326;2022-08-04T06:21:21;7.85;;;3.13;;
22713;SDS011;11524;50.846;4.326;2022-08-04T06:23:50;7.43;;;3.67;;
22713;SDS011;11524;50.846;4.326;2022-08-04T06:26:20;12.00;;;3.65;;
22713;SDS011;11524;50.846;4.326;2022-08-04T06:28:50;9.30;;;3.65;;
22713;SDS011;11524;50.846;4.326;2022-08-04T06:31:20;10.70;;;3.50;;
22713;SDS011;11524;50.846;4.326;2022-08-04T06:34:07;9.60;;;3.85;;
22713;SDS011;11524;50.846;4.326;2022-08-04T06:36:34;8.02;;;3.95;;
22713;SDS011;11524;50.846;4.326;2022-08-04T06:39:02;9.20;;;3.50;;
22713;SDS011;11524;50.846;4.326;2022-08-04T06:41:29;9.88;;;3.97;;
22713;SDS011;11524;50.846;4.326;2022-08-04T06:44:00;10.18;;;4.25;;
22713;SDS011;11524;50.846;4.326;2022-08-04T06:46:29;9.95;;;3.55;;
22713;SDS011;11524;50.846;4.326;2022-08-04T06:48:55;8.57;;;3.40;;
22713;SDS011;11524;50.846;4.326;2022-08-04T06:51:22;8.98;;;3.85;;
22713;SDS011;11524;50.846;4.326;2022-08-04T06:53:49;12.75;;;4.72;;
22713;SDS011;11524;50.846;4.326;2022-08-04T06:56:15;10.55;;;3.70;;
22713;SDS011;11524;50.846;4.326;2022-08-04T06:58:42;10.93;;;3.95;;
22713;SDS011;11524;50.846;4.326;2022-08-04T07:01:11;10.60;;;3.72;;
22713;SDS011;11524;50.846;4.326;2022-08-04T07:03:38;13.27;;;3.72;;
22713;SDS011;11524;50.846;4.326;2022-08-04T07:06:04;8.85;;;4.03;;
22713;SDS011;11524;50.846;4.326;2022-08-04T07:08:31;8.77;;;3.90;;
22713;SDS011;11524;50.846;4.326;2022-08-04T07:10:58;11.77;;;3.53;;
22713;SDS011;11524;50.846;4.326;2022-08-04T07:13:26;10.77;;;3.50;;
22713;SDS011;11524;50.846;4.326;2022-08-04T07:15:52;8.15;;;3.50;;
22713;SDS011;11524;50.846;4.326;2022-08-04T07:18:20;12.95;;;3.95;;
22713;SDS011;11524;50.846;4.326;2022-08-04T07:20:45;10.15;;;3.85;;
22713;SDS011;11524;50.846;4.326;2022-08-04T07:23:12;10.52;;;4.20;;
22713;SDS011;11524;50.846;4.326;2022-08-04T07:25:41;11.10;;;3.58;;
22713;SDS011;11524;50.846;4.326;2022-08-04T07:28:08;10.45;;;4.60;;
22713;SDS011;11524;50.846;4.326;2022-08-04T07:30:34;9.43;;;3.17;;
22713;SDS011;11524;50.846;4.326;2022-08-04T07:33:01;8.02;;;4.22;;
22713;SDS011;11524;50.846;4.326;2022-08-04T07:35:27;10.38;;;3.35;;
22713;SDS011;11524;50.846;4.326;2022-08-04T07:37:53;9.52;;;4.15;;
22713;SDS011;11524;50.846;4.326;2022-08-04T07:40:28;9.98;;;3.83;;
22713;SDS011;11524;50.846;4.326;2022-08-04T07:42:55;12.60;;;3.53;;
22713;SDS011;11524;50.846;4.326;2022-08-04T07:45:21;8.70;;;2.90;;
22713;SDS011;11524;50.846;4.326;2022-08-04T07:47:48;13.13;;;3.60;;
22713;SDS011;11524;50.846;4.326;2022-08-04T07:50:14;13.43;;;4.18;;
22713;SDS011;11524;50.846;4.326;2022-08-04T07:52:41;8.27;;;3.40;;
22713;SDS011;11524;50.846;4.326;2022-08-04T07:55:08;7.93;;;3.05;;
22713;SDS011;11524;50.846;4.326;2022-08-04T07:57:34;10.15;;;3.50;;
22713;SDS011;11524;50.846;4.326;2022-08-04T08:00:00;9.52;;;3.10;;
22713;SDS011;11524;50.846;4.326;2022-08-04T08:02:27;10.15;;;4.15;;
22713;SDS011;11524;50.846;4.326;2022-08-04T08:04:54;9.63;;;3.67;;
22713;SDS011;11524;50.846;4.326;2022-08-04T08:07:20;10.75;;;3.50;;
22713;SDS011;11524;50.846;4.326;2022-08-04T08:17:40;6.85;;;3.30;;
22713;SDS011;11524;50.846;4.326;2022-08-04T08:20:07;9.18;;;3.03;;
22713;SDS011;11524;50.846;4.326;2022-08-04T08:22:34;9.95;;;3.53;;
22713;SDS011;11524;50.846;4.326;2022-08-04T08:25:06;8.98;;;3.85;;
22713;SDS011;11524;50.846;4.326;2022-08-04T08:27:32;12.88;;;3.92;;
22713;SDS011;11524;50.846;4.326;2022-08-04T08:29:58;9.75;;;3.92;;
22713;SDS011;11524;50.846;4.326;2022-08-04T08:32:24;10.60;;;4.45;;
22713;SDS011;11524;50.846;4.326;2022-08-04T08:34:51;8.75;;;4.32;;
22713;SDS011;11524;50.846;4.326;2022-08-04T08:37:25;10.70;;;4.57;;
22713;SDS011;11524;50.846;4.326;2022-08-04T08:40:03;9.65;;;4.30;;
22713;SDS011;11524;50.846;4.326;2022-08-04T08:43:23;9.25;;;5.00;;
22713;SDS011;11524;50.846;4.326;2022-08-04T08:54:34;11.93;;;4.70;;
22713;SDS011;11524;50.846;4.326;2022-08-04T09:11:23;10.50;;;5.43;;
22713;SDS011;11524;50.846;4.326;2022-08-04T09:14:33;8.30;;;4.60;;
22713;SDS011;11524;50.846;4.326;2022-08-04T09:17:09;11.55;;;5.78;;
22713;SDS011;11524;50.846;4.326;2022-08-04T09:19:43;10.75;;;4.95;;
22713;SDS011;11524;50.846;4.326;2022-08-04T09:22:21;9.07;;;5.50;;
22713;SDS011;11524;50.846;4.326;2022-08-04T09:24:58;12.35;;;5.40;;
22713;SDS011;11524;50.846;4.326;2022-08-04T09:31:06;15.13;;;6.55;;
22713;SDS011;11524;50.846;4.326;2022-08-04T09:33:21;13.30;;;5.72;;
22713;SDS011;11524;50.846;4.326;2022-08-04T09:36:00;13.32;;;6.80;;
22713;SDS011;11524;50.846;4.326;2022-08-04T09:38:41;9.88;;;5.93;;
22713;SDS011;11524;50.846;4.326;2022-08-04T09:46:34;11.10;;;6.30;;
22713;SDS011;11524;50.846;4.326;2022-08-04T09:49:15;12.55;;;7.43;;
22713;SDS011;11524;50.846;4.326;2022-08-04T09:59:57;17.05;;;9.88;;
22713;SDS011;11524;50.846;4.326;2022-08-04T10:02:41;18.90;;;11.38;;
22713;SDS011;11524;50.846;4.326;2022-08-04T10:05:12;22.20;;;13.25;;
22713;SDS011;11524;50.846;4.326;2022-08-04T10:07:44;18.42;;;13.75;;
22713;SDS011;11524;50.846;4.326;2022-08-04T10:10:37;26.27;;;16.88;;
22713;SDS011;11524;50.846;4.326;2022-08-04T10:29:53;26.40;;;16.88;;
22713;SDS011;11524;50.846;4.326;2022-08-04T10:35:08;25.40;;;18.85;;
22713;SDS011;11524;50.846;4.326;2022-08-04T10:40:26;21.20;;;16.40;;
22713;SDS011;11524;50.846;4.326;2022-08-04T10:51:20;18.48;;;14.57;;
22713;SDS011;11524;50.846;4.326;2022-08-04T10:54:01;18.73;;;14.65;;
22713;SDS011;11524;50.846;4.326;2022-08-04T10:56:34;21.05;;;16.52;;
22713;SDS011;11524;50.846;4.326;2022-08-04T10:59:11;20.52;;;15.73;;
22713;SDS011;11524;50.846;4.326;2022-08-04T11:01:46;18.10;;;14.70;;
22713;SDS011;11524;50.846;4.326;2022-08-04T11:07:07;22.73;;;17.90;;
22713;SDS011;11524;50.846;4.326;2022-08-04T11:09:34;20.65;;;15.23;;
22713;SDS011;11524;50.846;4.326;2022-08-04T11:12:13;17.00;;;13.35;;
22713;SDS011;11524;50.846;4.326;2022-08-04T11:14:50;21.63;;;15.55;;
22713;SDS011;11524;50.846;4.326;2022-08-04T11:17:28;19.77;;;14.65;;
22713;SDS011;11524;50.846;4.326;2022-08-04T11:22:38;19.30;;;12.90;;
22713;SDS011;11524;50.846;4.326;2022-08-04T11:25:16;19.30;;;12.13;;
22713;SDS011;11524;50.846;4.326;2022-08-04T11:28:02;15.73;;;11.50;;
22713;SDS011;11524;50.846;4.326;2022-08-04T11:30:46;17.33;;;11.98;;
22713;SDS011;11524;50.846;4.326;2022-08-04T11:33:22;17.65;;;12.05;;
22713;SDS011;11524;50.846;4.326;2022-08-04T11:41:36;19.35;;;13.65;;
22713;SDS011;11524;50.846;4.326;2022-08-04T11:44:03;13.63;;;10.75;;
22713;SDS011;11524;50.846;4.326;2022-08-04T11:46:34;14.55;;;11.25;;
22713;SDS011;11524;50.846;4.326;2022-08-04T11:49:07;13.38;;;10.18;;
22713;SDS011;11524;50.846;4.326;2022-08-04T11:51:45;11.93;;;9.25;;
22713;SDS011;11524;50.846;4.326;2022-08-04T11:54:14;12.50;;;9.68;;
22713;SDS011;11524;50.846;4.326;2022-08-04T11:56:41;11.65;;;8.52;;
22713;SDS011;11524;50.846;4.326;2022-08-04T11:59:07;11.80;;;8.75;;
22713;SDS011;11524;50.846;4.326;2022-08-04T12:01:34;11.63;;;8.90;;
22713;SDS011;11524;50.846;4.326;2022-08-04T12:06:54;14.13;;;9.07;;
22713;SDS011;11524;50.846;4.326;2022-08-04T12:09:46;15.13;;;10.10;;
22713;SDS011;11524;50.846;4.326;2022-08-04T12:12:41;9.50;;;8.13;;
22713;SDS011;11524;50.846;4.326;2022-08-04T12:15:28;12.13;;;8.65;;
22713;SDS011;11524;50.846;4.326;2022-08-04T12:20:33;11.88;;;8.35;;
22713;SDS011;11524;50.846;4.326;2022-08-04T12:23:10;15.50;;;10.75;;
22713;SDS011;11524;50.846;4.326;2022-08-04T12:25:43;14.05;;;9.60;;
22713;SDS011;11524;50.846;4.326;2022-08-04T12:28:17;15.15;;;8.85;;
22713;SDS011;11524;50.846;4.326;2022-08-04T12:30:56;14.85;;;8.50;;
22713;SDS011;11524;50.846;4.326;2022-08-04T12:33:39;14.88;;;9.07;;
22713;SDS011;11524;50.846;4.326;2022-08-04T12:36:28;12.02;;;8.27;;
22713;SDS011;11524;50.846;4.326;2022-08-04T12:39:05;12.85;;;8.80;;
22713;SDS011;11524;50.846;4.326;2022-08-04T12:42:02;13.90;;;9.02;;
22713;SDS011;11524;50.846;4.326;2022-08-04T12:44:54;11.93;;;8.30;;
22713;SDS011;11524;50.846;4.326;2022-08-04T12:47:22;13.25;;;8.07;;
22713;SDS011;11524;50.846;4.326;2022-08-04T12:49:50;10.32;;;7.13;;
22713;SDS011;11524;50.846;4.326;2022-08-04T12:52:17;13.77;;;7.60;;
22713;SDS011;11524;50.846;4.326;2022-08-04T12:54:46;11.63;;;6.10;;
22713;SDS011;11524;50.846;4.326;2022-08-04T12:57:17;8.50;;;5.50;;
22713;SDS011;11524;50.846;4.326;2022-08-04T12:59:45;9.90;;;5.28;;
22713;SDS011;11524;50.846;4.326;2022-08-04T13:02:13;10.85;;;6.32;;
22713;SDS011;11524;50.846;4.326;2022-08-04T13:04:57;6.85;;;4.65;;
22713;SDS011;11524;50.846;4.326;2022-08-04T13:07:27;11.10;;;5.40;;
22713;SDS011;11524;50.846;4.326;2022-08-04T13:10:05;8.25;;;4.60;;
22713;SDS011;11524;50.846;4.326;2022-08-04T13:12:40;8.27;;;4.55;;
22713;SDS011;11524;50.846;4.326;2022-08-04T13:15:14;11.80;;;6.10;;
22713;SDS011;11524;50.846;4.326;2022-08-04T13:17:58;8.35;;;5.88;;
22713;SDS011;11524;50.846;4.326;2022-08-04T13:20:31;9.98;;;5.65;;
22713;SDS011;11524;50.846;4.326;2022-08-04T13:23:09;7.60;;;5.03;;
22713;SDS011;11524;50.846;4.326;2022-08-04T13:25:40;10.73;;;6.38;;
22713;SDS011;11524;50.846;4.326;2022-08-04T13:28:15;6.10;;;4.72;;
22713;SDS011;11524;50.846;4.326;2022-08-04T13:30:45;8.82;;;5.13;;
22713;SDS011;11524;50.846;4.326;2022-08-04T13:33:16;10.80;;;5.15;;
22713;SDS011;11524;50.846;4.326;2022-08-04T13:35:46;7.20;;;4.57;;
22713;SDS011;11524;50.846;4.326;2022-08-04T13:38:12;7.78;;;3.95;;
22713;SDS011;11524;50.846;4.326;2022-08-04T13:40:42;8.63;;;5.00;;
22713;SDS011;11524;50.846;4.326;2022-08-04T13:45:48;9.27;;;5.32;;
22713;SDS011;11524;50.846;4.326;2022-08-04T13:48:15;8.25;;;4.50;;
22713;SDS011;11524;50.846;4.326;2022-08-04T13:50:45;8.05;;;4.18;;
22713;SDS011;11524;50.846;4.326;2022-08-04T13:53:12;9.90;;;4.15;;
22713;SDS011;11524;50.846;4.326;2022-08-04T13:55:41;8.80;;;3.92;;
22713;SDS011;11524;50.846;4.326;2022-08-04T13:58:18;8.73;;;4.07;;
22713;SDS011;11524;50.846;4.326;2022-08-04T14:03:39;7.97;;;5.63;;
22713;SDS011;11524;50.846;4.326;2022-08-04T14:06:27;7.50;;;5.22;;
22713;SDS011;11524;50.846;4.326;2022-08-04T14:11:36;7.53;;;4.55;;
22713;SDS011;11524;50.846;4.326;2022-08-04T14:14:14;9.65;;;4.32;;
22713;SDS011;11524;50.846;4.326;2022-08-04T14:16:57;10.13;;;5.25;;
22713;SDS011;11524;50.846;4.326;2022-08-04T14:19:23;10.20;;;6.10;;
22713;SDS011;11524;50.846;4.326;2022-08-04T14:21:49;14.02;;;5.40;;
22713;SDS011;11524;50.846;4.326;2022-08-04T14:24:25;8.00;;;4.47;;
22713;SDS011;11524;50.846;4.326;2022-08-04T14:26:52;5.35;;;4.20;;
22713;SDS011;11524;50.846;4.326;2022-08-04T14:29:22;5.95;;;4.18;;
22713;SDS011;11524;50.846;4.326;2022-08-04T14:31:49;5.80;;;3.75;;
22713;SDS011;11524;50.846;4.326;2022-08-04T14:34:25;6.80;;;3.80;;
22713;SDS011;11524;50.846;4.326;2022-08-04T14:36:51;7.80;;;4.15;;
22713;SDS011;11524;50.846;4.326;2022-08-04T14:39:17;6.07;;;4.13;;
22713;SDS011;11524;50.846;4.326;2022-08-04T14:42:13;10.63;;;4.53;;
22713;SDS011;11524;50.846;4.326;2022-08-04T14:44:56;9.15;;;4.05;;
22713;SDS011;11524;50.846;4.326;2022-08-04T14:47:38;5.75;;;4.07;;
22713;SDS011;11524;50.846;4.326;2022-08-04T14:50:03;7.90;;;3.95;;
22713;SDS011;11524;50.846;4.326;2022-08-04T14:52:30;5.80;;;4.60;;
22713;SDS011;11524;50.846;4.326;2022-08-04T14:54:55;7.32;;;4.60;;
22713;SDS011;11524;50.846;4.326;2022-08-04T14:57:21;6.65;;;3.90;;
22713;SDS011;11524;50.846;4.326;2022-08-04T14:59:47;7.13;;;4.57;;
22713;SDS011;11524;50.846;4.326;2022-08-04T15:02:14;6.20;;;4.93;;
22713;SDS011;11524;50.846;4.326;2022-08-04T15:04:41;7.82;;;4.55;;
22713;SDS011;11524;50.846;4.326;2022-08-04T15:07:09;8.15;;;4.75;;
22713;SDS011;11524;50.846;4.326;2022-08-04T15:09:35;12.02;;;5.78;;
22713;SDS011;11524;50.846;4.326;2022-08-04T15:12:01;6.93;;;5.82;;
22713;SDS011;11524;50.846;4.326;2022-08-04T15:14:28;10.35;;;6.18;;
22713;SDS011;11524;50.846;4.326;2022-08-04T15:16:54;11.45;;;6.20;;
22713;SDS011;11524;50.846;4.326;2022-08-04T15:19:20;8.60;;;5.32;;
22713;SDS011;11524;50.846;4.326;2022-08-04T15:21:46;10.05;;;5.40;;
22713;SDS011;11524;50.846;4.326;2022-08-04T15:24:13;8.68;;;5.50;;
22713;SDS011;11524;50.846;4.326;2022-08-04T15:26:43;9.15;;;5.10;;
22713;SDS011;11524;50.846;4.326;2022-08-04T15:29:15;8.05;;;5.00;;
22713;SDS011;11524;50.846;4.326;2022-08-04T15:31:42;7.35;;;5.57;;
22713;SDS011;11524;50.846;4.326;2022-08-04T15:34:09;8.48;;;5.88;;
22713;SDS011;11524;50.846;4.326;2022-08-04T15:36:55;10.05;;;5.40;;
22713;SDS011;11524;50.846;4.326;2022-08-04T15:39:37;14.82;;;6.55;;
22713;SDS011;11524;50.846;4.326;2022-08-04T15:47:36;18.58;;;6.28;;
22713;SDS011;11524;50.846;4.326;2022-08-04T15:55:35;17.17;;;6.53;;
22713;SDS011;11524;50.846;4.326;2022-08-04T15:58:09;11.77;;;6.22;;
22713;SDS011;11524;50.846;4.326;2022-08-04T16:03:41;9.93;;;6.53;;
22713;SDS011;11524;50.846;4.326;2022-08-04T16:11:38;7.95;;;5.57;;
22713;SDS011;11524;50.846;4.326;2022-08-04T16:14:06;10.25;;;5.50;;
22713;SDS011;11524;50.846;4.326;2022-08-04T16:19:06;9.20;;;5.07;;
22713;SDS011;11524;50.846;4.326;2022-08-04T16:21:47;9.23;;;4.97;;
22713;SDS011;11524;50.846;4.326;2022-08-04T16:24:18;8.73;;;4.18;;
22713;SDS011;11524;50.846;4.326;2022-08-04T16:26:46;8.23;;;4.65;;
22713;SDS011;11524;50.846;4.326;2022-08-04T16:37:05;6.40;;;4.20;;
22713;SDS011;11524;50.846;4.326;2022-08-04T16:39:37;9.32;;;4.50;;
22713;SDS011;11524;50.846;4.326;2022-08-04T16:45:37;7.43;;;3.80;;
22713;SDS011;11524;50.846;4.326;2022-08-04T16:50:15;6.80;;;3.92;;
22713;SDS011;11524;50.846;4.326;2022-08-04T16:52:46;6.68;;;4.00;;
22713;SDS011;11524;50.846;4.326;2022-08-04T16:55:23;4.55;;;3.63;;
22713;SDS011;11524;50.846;4.326;2022-08-04T16:57:52;6.32;;;3.60;;
22713;SDS011;11524;50.846;4.326;2022-08-04T17:00:33;5.43;;;3.67;;
22713;SDS011;11524;50.846;4.326;2022-08-04T17:03:03;9.48;;;4.15;;
22713;SDS011;11524;50.846;4.326;2022-08-04T17:05:30;7.35;;;3.75;;
22713;SDS011;11524;50.846;4.326;2022-08-04T17:07:57;5.45;;;3.40;;
22713;SDS011;11524;50.846;4.326;2022-08-04T17:10:33;9.23;;;3.00;;
22713;SDS011;11524;50.846;4.326;2022-08-04T17:12:59;6.93;;;3.65;;
22713;SDS011;11524;50.846;4.326;2022-08-04T17:15:25;4.22;;;3.35;;
22713;SDS011;11524;50.846;4.326;2022-08-04T17:17:51;4.88;;;2.80;;
22713;SDS011;11524;50.846;4.326;2022-08-04T17:20:38;10.35;;;2.97;;
22713;SDS011;11524;50.846;4.326;2022-08-04T17:26:13;4.82;;;2.80;;
22713;SDS011;11524;50.846;4.326;2022-08-04T17:31:10;8.07;;;2.65;;
22713;SDS011;11524;50.846;4.326;2022-08-04T17:33:37;4.93;;;2.58;;
22713;SDS011;11524;50.846;4.326;2022-08-04T17:36:04;4.93;;;2.70;;
22713;SDS011;11524;50.846;4.326;2022-08-04T17:41:08;7.50;;;3.10;;
22713;SDS011;11524;50.846;4.326;2022-08-04T17:46:24;6.07;;;3.00;;
22713;SDS011;11524;50.846;4.326;2022-08-04T17:48:55;6.88;;;2.80;;
22713;SDS011;11524;50.846;4.326;2022-08-04T17:51:21;6.05;;;3.42;;
22713;SDS011;11524;50.846;4.326;2022-08-04T17:53:54;5.53;;;2.67;;
22713;SDS011;11524;50.846;4.326;2022-08-04T17:56:26;6.38;;;2.55;;
22713;SDS011;11524;50.846;4.326;2022-08-04T18:01:45;5.30;;;2.47;;
22713;SDS011;11524;50.846;4.326;2022-08-04T18:04:24;8.32;;;3.10;;
22713;SDS011;11524;50.846;4.326;2022-08-04T18:07:12;8.77;;;3.10;;
22713;SDS011;11524;50.846;4.326;2022-08-04T18:12:28;7.35;;;2.90;;
22713;SDS011;11524;50.846;4.326;2022-08-04T18:14:59;9.18;;;3.35;;
22713;SDS011;11524;50.846;4.326;2022-08-04T18:17:36;8.90;;;3.08;;
22713;SDS011;11524;50.846;4.326;2022-08-04T18:20:12;8.27;;;2.95;;
22713;SDS011;11524;50.846;4.326;2022-08-04T18:22:41;9.48;;;2.67;;
22713;SDS011;11524;50.846;4.326;2022-08-04T18:25:08;5.43;;;2.47;;
22713;SDS011;11524;50.846;4.326;2022-08-04T18:27:44;6.03;;;2.58;;
22713;SDS011;11524;50.846;4.326;2022-08-04T18:30:21;9.00;;;2.45;;
22713;SDS011;11524;50.846;4.326;2022-08-04T18:32:48;6.13;;;2.40;;
22713;SDS011;11524;50.846;4.326;2022-08-04T18:35:14;6.40;;;2.50;;
22713;SDS011;11524;50.846;4.326;2022-08-04T18:37:40;7.63;;;2.58;;
22713;SDS011;11524;50.846;4.326;2022-08-04T18:40:07;4.85;;;2.38;;
22713;SDS011;11524;50.846;4.326;2022-08-04T18:42:34;6.03;;;3.05;;
22713;SDS011;11524;50.846;4.326;2022-08-04T18:45:00;4.53;;;2.50;;
22713;SDS011;11524;50.846;4.326;2022-08-04T18:47:27;4.50;;;2.58;;
22713;SDS011;11524;50.846;4.326;2022-08-04T18:49:53;6.93;;;2.55;;
22713;SDS011;11524;50.846;4.326;2022-08-04T18:52:20;3.28;;;2.22;;
22713;SDS011;11524;50.846;4.326;2022-08-04T18:54:46;7.00;;;2.20;;
22713;SDS011;11524;50.846;4.326;2022-08-04T18:57:16;8.45;;;2.80;;
22713;SDS011;11524;50.846;4.326;2022-08-04T18:59:44;4.80;;;2.53;;
22713;SDS011;11524;50.846;4.326;2022-08-04T19:02:09;6.70;;;2.30;;
22713;SDS011;11524;50.846;4.326;2022-08-04T19:04:35;5.97;;;2.65;;
22713;SDS011;11524;50.846;4.326;2022-08-04T19:07:01;7.85;;;2.42;;
22713;SDS011;11524;50.846;4.326;2022-08-04T19:09:27;6.13;;;2.72;;
22713;SDS011;11524;50.846;4.326;2022-08-04T19:11:53;7.13;;;2.10;;
22713;SDS011;11524;50.846;4.326;2022-08-04T19:14:19;6.82;;;2.10;;
22713;SDS011;11524;50.846;4.326;2022-08-04T19:16:44;7.90;;;2.80;;
22713;SDS011;11524;50.846;4.326;2022-08-04T19:19:12;5.45;;;2.63;;
22713;SDS011;11524;50.846;4.326;2022-08-04T19:21:39;7.07;;;2.67;;
22713;SDS011;11524;50.846;4.326;2022-08-04T19:24:05;7.72;;;2.70;;
22713;SDS011;11524;50.846;4.326;2022-08-04T19:26:31;9.10;;;2.83;;
22713;SDS011;11524;50.846;4.326;2022-08-04T19:28:57;9.35;;;3.15;;
22713;SDS011;11524;50.846;4.326;2022-08-04T19:31:22;6.40;;;2.53;;
22713;SDS011;11524;50.846;4.326;2022-08-04T19:33:48;4.97;;;2.33;;
22713;SDS011;11524;50.846;4.326;2022-08-04T19:36:14;6.70;;;2.60;;
22713;SDS011;11524;50.846;4.326;2022-08-04T19:38:40;6.55;;;2.45;;
22713;SDS011;11524;50.846;4.326;2022-08-04T19:41:07;4.47;;;2.80;;
22713;SDS011;11524;50.846;4.326;2022-08-04T19:43:33;7.45;;;2.60;;
22713;SDS011;11524;50.846;4.326;2022-08-04T19:45:59;10.07;;;3.13;;
22713;SDS011;11524;50.846;4.326;2022-08-04T19:48:25;6.15;;;3.00;;
22713;SDS011;11524;50.846;4.326;2022-08-04T19:50:51;5.75;;;2.85;;
22713;SDS011;11524;50.846;4.326;2022-08-04T19:53:17;5.72;;;2.90;;
22713;SDS011;11524;50.846;4.326;2022-08-04T19:55:43;7.63;;;3.53;;
22713;SDS011;11524;50.846;4.326;2022-08-04T19:58:09;10.40;;;4.63;;
22713;SDS011;11524;50.846;4.326;2022-08-04T20:00:36;7.72;;;4.10;;
22713;SDS011;11524;50.846;4.326;2022-08-04T20:03:02;9.95;;;3.63;;
22713;SDS011;11524;50.846;4.326;2022-08-04T20:05:32;9.65;;;3.75;;
22713;SDS011;11524;50.846;4.326;2022-08-04T20:07:58;7.18;;;3.45;;
22713;SDS011;11524;50.846;4.326;2022-08-04T20:10:24;6.43;;;3.22;;
22713;SDS011;11524;50.846;4.326;2022-08-04T20:12:51;8.75;;;3.33;;